sensor_id;sensor_type;location;lat;lon;timestamp;P1;durP1;ratioP1;P2;durP2;ratioP2
51828;SDS011;37881;48.024;8.774;2024-01-11T00:00:32;78.67;;;28.47;;
51828;SDS011;37881;48.024;8.774;2024-01-11T00:02:59;69.20;;;26.70;;
51828;SDS011;37881;48.024;8.774;2024-01-11T00:05:26;74.90;;;25.25;;
51828;SDS011;37881;48.024;8.774;2024-01-11T00:07:53;74.97;;;26.20;;
51828;SDS011;37881;48.024;8.774;2024-01-11T00:10:20;73.28;;;26.05;;
51828;SDS011;37881;48.024;8.774;2024-01-11T00:12:47;77.43;;;25.67;;
51828;SDS011;37881;48.024;8.774;2024-01-11T00:15:14;72.68;;;25.85;;
51828;SDS011;37881;48.024;8.774;2024-01-11T00:17:41;81.18;;;28.00;;
51828;SDS011;37881;48.024;8.774;2024-01-11T00:20:08;78.10;;;27.13;;
51828;SDS011;37881;48.024;8.774;2024-01-11T00:22:36;71.47;;;26.65;;
51828;SDS011;37881;48.024;8.774;2024-01-11T00:25:03;69.80;;;25.93;;
51828;SDS011;37881;48.024;8.774;2024-01-11T00:27:30;81.72;;;27.75;;
51828;SDS011;37881;48.024;8.774;2024-01-11T00:29:57;73.07;;;25.55;;
51828;SDS011;37881;48.024;8.774;2024-01-11T00:32:24;71.05;;;24.73;;
51828;SDS011;37881;48.024;8.774;2024-01-11T00:34:51;74.28;;;26.33;;
51828;SDS011;37881;48.024;8.774;2024-01-11T00:37:17;81.23;;;26.40;;
51828;SDS011;37881;48.024;8.774;2024-01-11T00:39:44;71.78;;;25.38;;
51828;SDS011;37881;48.024;8.774;2024-01-11T00:42:11;81.82;;;30.98;;
51828;SDS011;37881;48.024;8.774;2024-01-11T00:44:38;77.50;;;27.90;;
51828;SDS011;37881;48.024;8.774;2024-01-11T00:47:04;70.03;;;26.15;;
51828;SDS011;37881;48.024;8.774;2024-01-11T00:49:31;70.93;;;25.23;;
51828;SDS011;37881;48.024;8.774;2024-01-11T00:51:59;69.35;;;24.77;;
51828;SDS011;37881;48.024;8.774;2024-01-11T00:54:26;75.55;;;24.70;;
51828;SDS011;37881;48.024;8.774;2024-01-11T00:56:53;75.63;;;27.13;;
51828;SDS011;37881;48.024;8.774;2024-01-11T00:59:19;81.30;;;26.58;;
51828;SDS011;37881;48.024;8.774;2024-01-11T01:01:47;77.13;;;26.20;;
51828;SDS011;37881;48.024;8.774;2024-01-11T01:04:15;87.43;;;28.40;;
51828;SDS011;37881;48.024;8.774;2024-01-11T01:06:42;78.47;;;26.60;;
51828;SDS011;37881;48.024;8.774;2024-01-11T01:09:10;74.47;;;25.83;;
51828;SDS011;37881;48.024;8.774;2024-01-11T01:11:37;74.97;;;25.77;;
51828;SDS011;37881;48.024;8.774;2024-01-11T01:14:04;78.47;;;27.07;;
51828;SDS011;37881;48.024;8.774;2024-01-11T01:16:31;64.63;;;25.10;;
51828;SDS011;37881;48.024;8.774;2024-01-11T01:18:58;68.75;;;24.45;;
51828;SDS011;37881;48.024;8.774;2024-01-11T01:21:25;65.03;;;24.25;;
51828;SDS011;37881;48.024;8.774;2024-01-11T01:23:52;71.07;;;25.50;;
51828;SDS011;37881;48.024;8.774;2024-01-11T01:26:19;65.07;;;23.43;;
51828;SDS011;37881;48.024;8.774;2024-01-11T01:28:46;66.55;;;23.85;;
51828;SDS011;37881;48.024;8.774;2024-01-11T01:31:13;72.30;;;25.42;;
51828;SDS011;37881;48.024;8.774;2024-01-11T01:33:40;62.33;;;23.40;;
51828;SDS011;37881;48.024;8.774;2024-01-11T01:36:08;68.53;;;24.63;;
51828;SDS011;37881;48.024;8.774;2024-01-11T01:38:36;65.80;;;23.43;;
51828;SDS011;37881;48.024;8.774;2024-01-11T01:41:03;66.10;;;22.95;;
51828;SDS011;37881;48.024;8.774;2024-01-11T01:43:30;68.95;;;24.75;;
51828;SDS011;37881;48.024;8.774;2024-01-11T01:45:57;65.72;;;23.50;;
51828;SDS011;37881;48.024;8.774;2024-01-11T01:48:24;66.85;;;23.60;;
51828;SDS011;37881;48.024;8.774;2024-01-11T01:50:52;70.30;;;23.27;;
51828;SDS011;37881;48.024;8.774;2024-01-11T01:53:19;67.25;;;24.00;;
51828;SDS011;37881;48.024;8.774;2024-01-11T01:55:48;67.70;;;23.85;;
51828;SDS011;37881;48.024;8.774;2024-01-11T01:58:16;70.43;;;24.25;;
51828;SDS011;37881;48.024;8.774;2024-01-11T02:00:44;66.18;;;24.42;;
51828;SDS011;37881;48.024;8.774;2024-01-11T02:03:14;64.37;;;23.93;;
51828;SDS011;37881;48.024;8.774;2024-01-11T02:05:41;72.28;;;24.77;;
51828;SDS011;37881;48.024;8.774;2024-01-11T02:08:09;71.82;;;26.20;;
51828;SDS011;37881;48.024;8.774;2024-01-11T02:10:41;78.57;;;27.65;;
51828;SDS011;37881;48.024;8.774;2024-01-11T02:13:09;76.20;;;26.88;;
51828;SDS011;37881;48.024;8.774;2024-01-11T02:15:37;72.17;;;24.97;;
51828;SDS011;37881;48.024;8.774;2024-01-11T02:18:04;73.50;;;26.13;;
51828;SDS011;37881;48.024;8.774;2024-01-11T02:20:31;69.82;;;24.45;;
51828;SDS011;37881;48.024;8.774;2024-01-11T02:23:01;65.75;;;23.27;;
51828;SDS011;37881;48.024;8.774;2024-01-11T02:25:34;67.10;;;23.10;;
51828;SDS011;37881;48.024;8.774;2024-01-11T02:28:01;64.10;;;23.00;;
51828;SDS011;37881;48.024;8.774;2024-01-11T02:30:28;71.35;;;25.75;;
51828;SDS011;37881;48.024;8.774;2024-01-11T02:32:55;73.85;;;24.52;;
51828;SDS011;37881;48.024;8.774;2024-01-11T02:35:22;71.13;;;24.50;;
51828;SDS011;37881;48.024;8.774;2024-01-11T02:37:51;70.50;;;24.30;;
51828;SDS011;37881;48.024;8.774;2024-01-11T02:40:17;75.17;;;24.63;;
51828;SDS011;37881;48.024;8.774;2024-01-11T02:42:45;73.90;;;25.30;;
51828;SDS011;37881;48.024;8.774;2024-01-11T02:45:12;77.50;;;26.48;;
51828;SDS011;37881;48.024;8.774;2024-01-11T02:47:39;73.15;;;24.88;;
51828;SDS011;37881;48.024;8.774;2024-01-11T02:50:07;102.35;;;29.10;;
51828;SDS011;37881;48.024;8.774;2024-01-11T02:52:34;73.60;;;24.47;;
51828;SDS011;37881;48.024;8.774;2024-01-11T02:55:01;84.93;;;25.77;;
51828;SDS011;37881;48.024;8.774;2024-01-11T02:57:28;101.40;;;26.20;;
51828;SDS011;37881;48.024;8.774;2024-01-11T02:59:55;155.15;;;34.22;;
51828;SDS011;37881;48.024;8.774;2024-01-11T03:02:22;110.28;;;30.25;;
51828;SDS011;37881;48.024;8.774;2024-01-11T03:04:48;89.47;;;27.20;;
51828;SDS011;37881;48.024;8.774;2024-01-11T03:07:15;112.07;;;29.33;;
51828;SDS011;37881;48.024;8.774;2024-01-11T03:09:42;146.25;;;30.95;;
51828;SDS011;37881;48.024;8.774;2024-01-11T03:12:09;155.13;;;33.20;;
51828;SDS011;37881;48.024;8.774;2024-01-11T03:14:35;86.60;;;26.98;;
51828;SDS011;37881;48.024;8.774;2024-01-11T03:17:02;83.77;;;26.80;;
51828;SDS011;37881;48.024;8.774;2024-01-11T03:19:29;100.22;;;27.70;;
51828;SDS011;37881;48.024;8.774;2024-01-11T03:21:56;77.03;;;25.45;;
51828;SDS011;37881;48.024;8.774;2024-01-11T03:24:23;84.20;;;26.52;;
51828;SDS011;37881;48.024;8.774;2024-01-11T03:26:50;82.75;;;25.85;;
51828;SDS011;37881;48.024;8.774;2024-01-11T03:29:17;77.83;;;26.10;;
51828;SDS011;37881;48.024;8.774;2024-01-11T03:31:44;83.22;;;25.38;;
51828;SDS011;37881;48.024;8.774;2024-01-11T03:34:11;78.78;;;25.80;;
51828;SDS011;37881;48.024;8.774;2024-01-11T03:36:38;74.07;;;25.08;;
51828;SDS011;37881;48.024;8.774;2024-01-11T03:39:06;83.78;;;26.45;;
51828;SDS011;37881;48.024;8.774;2024-01-11T03:41:33;81.57;;;25.23;;
51828;SDS011;37881;48.024;8.774;2024-01-11T03:44:00;79.00;;;25.00;;
51828;SDS011;37881;48.024;8.774;2024-01-11T03:46:27;81.13;;;25.55;;
51828;SDS011;37881;48.024;8.774;2024-01-11T03:48:54;82.53;;;25.38;;
51828;SDS011;37881;48.024;8.774;2024-01-11T03:51:22;80.95;;;24.58;;
51828;SDS011;37881;48.024;8.774;2024-01-11T03:53:49;127.57;;;25.30;;
51828;SDS011;37881;48.024;8.774;2024-01-11T03:56:16;84.13;;;25.02;;
51828;SDS011;37881;48.024;8.774;2024-01-11T03:58:43;103.68;;;24.77;;
51828;SDS011;37881;48.024;8.774;2024-01-11T04:01:11;106.07;;;25.40;;
51828;SDS011;37881;48.024;8.774;2024-01-11T04:03:38;80.72;;;24.60;;
51828;SDS011;37881;48.024;8.774;2024-01-11T04:06:05;74.87;;;24.57;;
51828;SDS011;37881;48.024;8.774;2024-01-11T04:08:33;85.68;;;26.88;;
51828;SDS011;37881;48.024;8.774;2024-01-11T04:11:03;135.40;;;26.27;;
51828;SDS011;37881;48.024;8.774;2024-01-11T04:13:32;268.27;;;33.30;;
51828;SDS011;37881;48.024;8.774;2024-01-11T04:16:03;132.80;;;25.85;;
51828;SDS011;37881;48.024;8.774;2024-01-11T04:18:31;88.60;;;24.67;;
51828;SDS011;37881;48.024;8.774;2024-01-11T04:20:57;106.95;;;26.05;;
51828;SDS011;37881;48.024;8.774;2024-01-11T04:23:24;78.18;;;23.83;;
51828;SDS011;37881;48.024;8.774;2024-01-11T04:25:51;70.68;;;23.98;;
51828;SDS011;37881;48.024;8.774;2024-01-11T04:28:18;78.20;;;23.02;;
51828;SDS011;37881;48.024;8.774;2024-01-11T04:30:45;101.17;;;25.23;;
51828;SDS011;37881;48.024;8.774;2024-01-11T04:33:15;75.38;;;23.63;;
51828;SDS011;37881;48.024;8.774;2024-01-11T04:35:42;64.95;;;23.55;;
51828;SDS011;37881;48.024;8.774;2024-01-11T04:38:08;82.78;;;24.02;;
51828;SDS011;37881;48.024;8.774;2024-01-11T04:40:35;76.10;;;23.92;;
51828;SDS011;37881;48.024;8.774;2024-01-11T04:43:02;69.60;;;24.10;;
51828;SDS011;37881;48.024;8.774;2024-01-11T04:45:29;137.23;;;25.50;;
51828;SDS011;37881;48.024;8.774;2024-01-11T04:47:56;117.57;;;25.20;;
51828;SDS011;37881;48.024;8.774;2024-01-11T04:50:23;80.70;;;25.45;;
51828;SDS011;37881;48.024;8.774;2024-01-11T04:52:50;81.80;;;24.73;;
51828;SDS011;37881;48.024;8.774;2024-01-11T04:55:17;100.77;;;25.63;;
51828;SDS011;37881;48.024;8.774;2024-01-11T04:57:43;90.55;;;27.10;;
51828;SDS011;37881;48.024;8.774;2024-01-11T05:00:10;75.15;;;25.85;;
51828;SDS011;37881;48.024;8.774;2024-01-11T05:02:37;77.93;;;25.92;;
51828;SDS011;37881;48.024;8.774;2024-01-11T05:05:04;93.40;;;24.70;;
51828;SDS011;37881;48.024;8.774;2024-01-11T05:07:31;91.03;;;27.23;;
51828;SDS011;37881;48.024;8.774;2024-01-11T05:09:58;73.85;;;22.88;;
51828;SDS011;37881;48.024;8.774;2024-01-11T05:12:25;82.82;;;26.00;;
51828;SDS011;37881;48.024;8.774;2024-01-11T05:14:52;75.55;;;23.38;;
51828;SDS011;37881;48.024;8.774;2024-01-11T05:17:18;88.45;;;24.35;;
51828;SDS011;37881;48.024;8.774;2024-01-11T05:19:45;81.77;;;25.33;;
51828;SDS011;37881;48.024;8.774;2024-01-11T05:22:12;66.97;;;22.70;;
51828;SDS011;37881;48.024;8.774;2024-01-11T05:24:39;65.75;;;23.70;;
51828;SDS011;37881;48.024;8.774;2024-01-11T05:27:05;73.13;;;25.90;;
51828;SDS011;37881;48.024;8.774;2024-01-11T05:29:32;74.47;;;25.77;;
51828;SDS011;37881;48.024;8.774;2024-01-11T05:31:59;79.70;;;24.87;;
51828;SDS011;37881;48.024;8.774;2024-01-11T05:34:26;81.60;;;26.85;;
51828;SDS011;37881;48.024;8.774;2024-01-11T05:36:53;83.82;;;28.05;;
51828;SDS011;37881;48.024;8.774;2024-01-11T05:39:20;87.57;;;28.60;;
51828;SDS011;37881;48.024;8.774;2024-01-11T05:41:47;79.93;;;27.85;;
51828;SDS011;37881;48.024;8.774;2024-01-11T05:44:14;89.70;;;29.47;;
51828;SDS011;37881;48.024;8.774;2024-01-11T05:46:41;103.53;;;32.88;;
51828;SDS011;37881;48.024;8.774;2024-01-11T05:49:08;88.93;;;28.75;;
51828;SDS011;37881;48.024;8.774;2024-01-11T05:51:34;89.70;;;27.85;;
51828;SDS011;37881;48.024;8.774;2024-01-11T05:54:01;93.72;;;29.98;;
51828;SDS011;37881;48.024;8.774;2024-01-11T05:56:28;94.03;;;28.00;;
51828;SDS011;37881;48.024;8.774;2024-01-11T05:58:55;97.78;;;32.28;;
51828;SDS011;37881;48.024;8.774;2024-01-11T06:01:21;80.85;;;27.38;;
51828;SDS011;37881;48.024;8.774;2024-01-11T06:03:48;87.03;;;29.50;;
51828;SDS011;37881;48.024;8.774;2024-01-11T06:06:15;89.15;;;29.73;;
51828;SDS011;37881;48.024;8.774;2024-01-11T06:08:42;78.20;;;25.63;;
51828;SDS011;37881;48.024;8.774;2024-01-11T06:11:10;80.30;;;28.45;;
51828;SDS011;37881;48.024;8.774;2024-01-11T06:13:37;85.35;;;28.58;;
51828;SDS011;37881;48.024;8.774;2024-01-11T06:16:06;81.30;;;28.05;;
51828;SDS011;37881;48.024;8.774;2024-01-11T06:18:38;80.72;;;26.65;;
51828;SDS011;37881;48.024;8.774;2024-01-11T06:21:05;78.40;;;25.10;;
51828;SDS011;37881;48.024;8.774;2024-01-11T06:23:32;76.30;;;25.50;;
51828;SDS011;37881;48.024;8.774;2024-01-11T06:25:58;76.72;;;26.58;;
51828;SDS011;37881;48.024;8.774;2024-01-11T06:28:26;74.57;;;25.20;;
51828;SDS011;37881;48.024;8.774;2024-01-11T06:30:52;74.63;;;26.55;;
51828;SDS011;37881;48.024;8.774;2024-01-11T06:33:20;67.10;;;23.53;;
51828;SDS011;37881;48.024;8.774;2024-01-11T06:35:47;79.78;;;26.35;;
51828;SDS011;37881;48.024;8.774;2024-01-11T06:38:14;81.05;;;26.88;;
51828;SDS011;37881;48.024;8.774;2024-01-11T06:40:41;76.15;;;26.13;;
51828;SDS011;37881;48.024;8.774;2024-01-11T06:43:08;79.50;;;26.15;;
51828;SDS011;37881;48.024;8.774;2024-01-11T06:45:34;73.50;;;23.83;;
51828;SDS011;37881;48.024;8.774;2024-01-11T06:48:01;70.80;;;23.67;;
51828;SDS011;37881;48.024;8.774;2024-01-11T06:50:28;73.70;;;24.83;;
51828;SDS011;37881;48.024;8.774;2024-01-11T06:52:55;73.40;;;25.00;;
51828;SDS011;37881;48.024;8.774;2024-01-11T06:55:22;70.90;;;24.35;;
51828;SDS011;37881;48.024;8.774;2024-01-11T06:57:49;80.07;;;24.43;;
51828;SDS011;37881;48.024;8.774;2024-01-11T07:00:16;71.75;;;24.48;;
51828;SDS011;37881;48.024;8.774;2024-01-11T07:02:43;76.35;;;26.92;;
51828;SDS011;37881;48.024;8.774;2024-01-11T07:05:09;80.07;;;27.48;;
51828;SDS011;37881;48.024;8.774;2024-01-11T07:07:36;75.78;;;26.20;;
51828;SDS011;37881;48.024;8.774;2024-01-11T07:10:03;73.27;;;26.30;;
51828;SDS011;37881;48.024;8.774;2024-01-11T07:12:31;69.78;;;24.15;;
51828;SDS011;37881;48.024;8.774;2024-01-11T07:14:59;69.13;;;24.50;;
51828;SDS011;37881;48.024;8.774;2024-01-11T07:17:26;68.28;;;24.25;;
51828;SDS011;37881;48.024;8.774;2024-01-11T07:19:53;68.07;;;24.80;;
51828;SDS011;37881;48.024;8.774;2024-01-11T07:22:19;68.23;;;24.00;;
51828;SDS011;37881;48.024;8.774;2024-01-11T07:24:46;67.90;;;23.90;;
51828;SDS011;37881;48.024;8.774;2024-01-11T07:27:13;66.70;;;23.88;;
51828;SDS011;37881;48.024;8.774;2024-01-11T07:29:41;66.25;;;23.30;;
51828;SDS011;37881;48.024;8.774;2024-01-11T07:32:08;65.85;;;23.83;;
51828;SDS011;37881;48.024;8.774;2024-01-11T07:34:35;66.50;;;24.57;;
51828;SDS011;37881;48.024;8.774;2024-01-11T07:37:03;64.93;;;22.02;;
51828;SDS011;37881;48.024;8.774;2024-01-11T07:39:30;64.07;;;23.33;;
51828;SDS011;37881;48.024;8.774;2024-01-11T07:41:57;64.80;;;24.08;;
51828;SDS011;37881;48.024;8.774;2024-01-11T07:44:24;70.20;;;24.98;;
51828;SDS011;37881;48.024;8.774;2024-01-11T07:46:51;61.33;;;22.37;;
51828;SDS011;37881;48.024;8.774;2024-01-11T07:49:21;72.82;;;23.52;;
51828;SDS011;37881;48.024;8.774;2024-01-11T07:51:48;65.68;;;22.55;;
51828;SDS011;37881;48.024;8.774;2024-01-11T07:54:15;64.13;;;22.45;;
51828;SDS011;37881;48.024;8.774;2024-01-11T07:56:42;62.35;;;22.80;;
51828;SDS011;37881;48.024;8.774;2024-01-11T07:59:09;69.50;;;22.57;;
51828;SDS011;37881;48.024;8.774;2024-01-11T08:01:41;68.80;;;23.23;;
51828;SDS011;37881;48.024;8.774;2024-01-11T08:04:08;65.63;;;23.20;;
51828;SDS011;37881;48.024;8.774;2024-01-11T08:06:35;66.32;;;23.58;;
51828;SDS011;37881;48.024;8.774;2024-01-11T08:09:02;61.83;;;22.52;;
51828;SDS011;37881;48.024;8.774;2024-01-11T08:11:31;59.63;;;21.97;;
51828;SDS011;37881;48.024;8.774;2024-01-11T08:14:02;65.57;;;23.42;;
51828;SDS011;37881;48.024;8.774;2024-01-11T08:16:32;69.45;;;24.35;;
51828;SDS011;37881;48.024;8.774;2024-01-11T08:18:59;68.38;;;23.98;;
51828;SDS011;37881;48.024;8.774;2024-01-11T08:21:27;70.03;;;23.58;;
51828;SDS011;37881;48.024;8.774;2024-01-11T08:23:55;68.33;;;23.53;;
51828;SDS011;37881;48.024;8.774;2024-01-11T08:26:28;80.90;;;25.33;;
51828;SDS011;37881;48.024;8.774;2024-01-11T08:28:56;72.57;;;23.45;;
51828;SDS011;37881;48.024;8.774;2024-01-11T08:31:23;68.15;;;23.40;;
51828;SDS011;37881;48.024;8.774;2024-01-11T08:33:50;82.60;;;29.90;;
51828;SDS011;37881;48.024;8.774;2024-01-11T08:36:17;85.07;;;27.63;;
51828;SDS011;37881;48.024;8.774;2024-01-11T08:38:43;70.18;;;24.08;;
51828;SDS011;37881;48.024;8.774;2024-01-11T08:41:10;67.95;;;24.08;;
51828;SDS011;37881;48.024;8.774;2024-01-11T08:43:38;73.68;;;25.50;;
51828;SDS011;37881;48.024;8.774;2024-01-11T08:46:06;67.50;;;23.65;;
51828;SDS011;37881;48.024;8.774;2024-01-11T08:48:32;65.63;;;23.47;;
51828;SDS011;37881;48.024;8.774;2024-01-11T08:51:00;79.00;;;27.55;;
51828;SDS011;37881;48.024;8.774;2024-01-11T08:53:27;72.93;;;24.50;;
51828;SDS011;37881;48.024;8.774;2024-01-11T08:55:54;73.05;;;27.27;;
51828;SDS011;37881;48.024;8.774;2024-01-11T08:58:20;79.50;;;27.80;;
51828;SDS011;37881;48.024;8.774;2024-01-11T09:00:47;71.23;;;25.97;;
51828;SDS011;37881;48.024;8.774;2024-01-11T09:03:14;72.15;;;25.13;;
51828;SDS011;37881;48.024;8.774;2024-01-11T09:05:43;73.70;;;26.38;;
51828;SDS011;37881;48.024;8.774;2024-01-11T09:08:10;72.22;;;25.73;;
51828;SDS011;37881;48.024;8.774;2024-01-11T09:10:37;77.70;;;27.88;;
51828;SDS011;37881;48.024;8.774;2024-01-11T09:13:04;74.70;;;25.33;;
51828;SDS011;37881;48.024;8.774;2024-01-11T09:15:31;73.95;;;26.42;;
51828;SDS011;37881;48.024;8.774;2024-01-11T09:17:58;80.43;;;28.55;;
51828;SDS011;37881;48.024;8.774;2024-01-11T09:20:27;76.88;;;26.35;;
51828;SDS011;37881;48.024;8.774;2024-01-11T09:22:54;79.80;;;28.10;;
51828;SDS011;37881;48.024;8.774;2024-01-11T09:25:21;79.70;;;27.50;;
51828;SDS011;37881;48.024;8.774;2024-01-11T09:27:49;96.50;;;35.63;;
51828;SDS011;37881;48.024;8.774;2024-01-11T09:30:16;83.68;;;31.20;;
51828;SDS011;37881;48.024;8.774;2024-01-11T09:32:43;86.45;;;28.88;;
51828;SDS011;37881;48.024;8.774;2024-01-11T09:35:10;75.00;;;27.95;;
51828;SDS011;37881;48.024;8.774;2024-01-11T09:37:41;75.87;;;28.27;;
51828;SDS011;37881;48.024;8.774;2024-01-11T09:40:09;97.28;;;33.90;;
51828;SDS011;37881;48.024;8.774;2024-01-11T09:42:37;87.95;;;33.53;;
51828;SDS011;37881;48.024;8.774;2024-01-11T09:45:10;91.15;;;31.80;;
51828;SDS011;37881;48.024;8.774;2024-01-11T09:47:39;79.03;;;30.27;;
51828;SDS011;37881;48.024;8.774;2024-01-11T09:50:07;72.77;;;28.63;;
51828;SDS011;37881;48.024;8.774;2024-01-11T09:52:34;84.95;;;34.65;;
51828;SDS011;37881;48.024;8.774;2024-01-11T09:55:04;76.05;;;27.65;;
51828;SDS011;37881;48.024;8.774;2024-01-11T09:57:32;71.78;;;27.55;;
51828;SDS011;37881;48.024;8.774;2024-01-11T09:59:59;72.43;;;27.33;;
51828;SDS011;37881;48.024;8.774;2024-01-11T10:02:30;70.27;;;26.93;;
51828;SDS011;37881;48.024;8.774;2024-01-11T10:04:57;75.07;;;29.02;;
51828;SDS011;37881;48.024;8.774;2024-01-11T10:07:24;70.00;;;27.48;;
51828;SDS011;37881;48.024;8.774;2024-01-11T10:09:51;68.25;;;27.23;;
51828;SDS011;37881;48.024;8.774;2024-01-11T10:12:22;69.28;;;26.58;;
51828;SDS011;37881;48.024;8.774;2024-01-11T10:14:52;70.27;;;25.20;;
51828;SDS011;37881;48.024;8.774;2024-01-11T10:17:19;73.50;;;27.20;;
51828;SDS011;37881;48.024;8.774;2024-01-11T10:19:52;73.78;;;30.25;;
51828;SDS011;37881;48.024;8.774;2024-01-11T10:22:20;72.15;;;31.77;;
51828;SDS011;37881;48.024;8.774;2024-01-11T10:24:50;73.28;;;31.25;;
51828;SDS011;37881;48.024;8.774;2024-01-11T10:27:17;73.57;;;32.37;;
51828;SDS011;37881;48.024;8.774;2024-01-11T10:29:44;67.57;;;28.70;;
51828;SDS011;37881;48.024;8.774;2024-01-11T10:32:12;66.95;;;29.80;;
51828;SDS011;37881;48.024;8.774;2024-01-11T10:34:39;68.05;;;27.35;;
51828;SDS011;37881;48.024;8.774;2024-01-11T10:37:07;64.00;;;27.42;;
51828;SDS011;37881;48.024;8.774;2024-01-11T10:39:37;62.90;;;26.93;;
51828;SDS011;37881;48.024;8.774;2024-01-11T10:42:05;72.28;;;30.60;;
51828;SDS011;37881;48.024;8.774;2024-01-11T10:44:34;71.78;;;30.90;;
51828;SDS011;37881;48.024;8.774;2024-01-11T10:47:03;73.93;;;28.98;;
51828;SDS011;37881;48.024;8.774;2024-01-11T10:49:34;68.03;;;26.35;;
51828;SDS011;37881;48.024;8.774;2024-01-11T10:52:05;77.07;;;32.27;;
51828;SDS011;37881;48.024;8.774;2024-01-11T10:54:34;77.95;;;31.02;;
51828;SDS011;37881;48.024;8.774;2024-01-11T10:57:01;69.88;;;27.73;;
51828;SDS011;37881;48.024;8.774;2024-01-11T10:59:31;70.90;;;28.55;;
51828;SDS011;37881;48.024;8.774;2024-01-11T11:02:05;72.00;;;29.50;;
51828;SDS011;37881;48.024;8.774;2024-01-11T11:04:39;66.47;;;27.33;;
51828;SDS011;37881;48.024;8.774;2024-01-11T11:07:08;64.93;;;27.60;;
51828;SDS011;37881;48.024;8.774;2024-01-11T11:09:36;65.90;;;29.58;;
51828;SDS011;37881;48.024;8.774;2024-01-11T11:12:05;61.83;;;27.63;;
51828;SDS011;37881;48.024;8.774;2024-01-11T11:14:34;67.22;;;29.80;;
51828;SDS011;37881;48.024;8.774;2024-01-11T11:17:01;64.30;;;29.17;;
51828;SDS011;37881;48.024;8.774;2024-01-11T11:19:29;61.78;;;27.77;;
51828;SDS011;37881;48.024;8.774;2024-01-11T11:21:56;58.92;;;27.75;;
51828;SDS011;37881;48.024;8.774;2024-01-11T11:24:23;57.83;;;27.80;;
51828;SDS011;37881;48.024;8.774;2024-01-11T11:26:50;62.47;;;29.50;;
51828;SDS011;37881;48.024;8.774;2024-01-11T11:29:17;62.80;;;29.13;;
51828;SDS011;37881;48.024;8.774;2024-01-11T11:31:45;70.13;;;33.20;;
51828;SDS011;37881;48.024;8.774;2024-01-11T11:34:14;66.70;;;31.65;;
51828;SDS011;37881;48.024;8.774;2024-01-11T11:36:41;70.65;;;34.47;;
51828;SDS011;37881;48.024;8.774;2024-01-11T11:39:10;75.55;;;35.30;;
51828;SDS011;37881;48.024;8.774;2024-01-11T11:41:41;68.97;;;30.87;;
51828;SDS011;37881;48.024;8.774;2024-01-11T11:44:11;70.63;;;29.98;;
51828;SDS011;37881;48.024;8.774;2024-01-11T11:46:40;70.53;;;31.23;;
51828;SDS011;37881;48.024;8.774;2024-01-11T11:49:07;68.32;;;30.95;;
51828;SDS011;37881;48.024;8.774;2024-01-11T11:51:36;66.70;;;29.90;;
51828;SDS011;37881;48.024;8.774;2024-01-11T11:54:05;68.93;;;32.13;;
51828;SDS011;37881;48.024;8.774;2024-01-11T11:56:37;68.78;;;31.40;;
51828;SDS011;37881;48.024;8.774;2024-01-11T11:59:04;71.90;;;31.45;;
51828;SDS011;37881;48.024;8.774;2024-01-11T12:01:33;76.75;;;33.15;;
51828;SDS011;37881;48.024;8.774;2024-01-11T12:04:01;71.30;;;31.00;;
51828;SDS011;37881;48.024;8.774;2024-01-11T12:06:29;77.03;;;33.20;;
51828;SDS011;37881;48.024;8.774;2024-01-11T12:08:56;74.85;;;31.42;;
51828;SDS011;37881;48.024;8.774;2024-01-11T12:11:24;76.57;;;32.17;;
51828;SDS011;37881;48.024;8.774;2024-01-11T12:13:52;83.40;;;37.58;;
51828;SDS011;37881;48.024;8.774;2024-01-11T12:16:21;73.68;;;29.20;;
51828;SDS011;37881;48.024;8.774;2024-01-11T12:18:48;82.30;;;31.23;;
51828;SDS011;37881;48.024;8.774;2024-01-11T12:21:16;78.80;;;30.83;;
51828;SDS011;37881;48.024;8.774;2024-01-11T12:23:43;84.82;;;32.03;;
51828;SDS011;37881;48.024;8.774;2024-01-11T12:26:10;85.47;;;32.13;;
51828;SDS011;37881;48.024;8.774;2024-01-11T12:28:42;74.40;;;27.48;;
51828;SDS011;37881;48.024;8.774;2024-01-11T12:31:11;79.97;;;29.73;;
51828;SDS011;37881;48.024;8.774;2024-01-11T12:33:39;83.18;;;29.77;;
51828;SDS011;37881;48.024;8.774;2024-01-11T12:36:07;94.75;;;37.83;;
51828;SDS011;37881;48.024;8.774;2024-01-11T12:38:35;77.13;;;27.95;;
51828;SDS011;37881;48.024;8.774;2024-01-11T12:41:02;74.88;;;28.80;;
51828;SDS011;37881;48.024;8.774;2024-01-11T12:43:31;69.60;;;26.37;;
51828;SDS011;37881;48.024;8.774;2024-01-11T12:45:58;67.95;;;26.20;;
51828;SDS011;37881;48.024;8.774;2024-01-11T12:48:24;68.15;;;27.60;;
51828;SDS011;37881;48.024;8.774;2024-01-11T12:50:52;80.85;;;32.50;;
51828;SDS011;37881;48.024;8.774;2024-01-11T12:53:39;70.32;;;28.60;;
51828;SDS011;37881;48.024;8.774;2024-01-11T12:56:07;79.17;;;30.57;;
51828;SDS011;37881;48.024;8.774;2024-01-11T12:58:38;74.00;;;27.55;;
51828;SDS011;37881;48.024;8.774;2024-01-11T13:01:08;70.68;;;27.13;;
51828;SDS011;37881;48.024;8.774;2024-01-11T13:03:37;76.88;;;27.23;;
51828;SDS011;37881;48.024;8.774;2024-01-11T13:06:05;73.78;;;28.88;;
51828;SDS011;37881;48.024;8.774;2024-01-11T13:08:33;75.73;;;27.90;;
51828;SDS011;37881;48.024;8.774;2024-01-11T13:11:03;69.70;;;25.85;;
51828;SDS011;37881;48.024;8.774;2024-01-11T13:13:34;80.40;;;32.53;;
51828;SDS011;37881;48.024;8.774;2024-01-11T13:16:04;71.07;;;24.92;;
51828;SDS011;37881;48.024;8.774;2024-01-11T13:18:37;72.53;;;26.95;;
51828;SDS011;37881;48.024;8.774;2024-01-11T13:21:04;75.10;;;28.13;;
51828;SDS011;37881;48.024;8.774;2024-01-11T13:23:33;76.47;;;28.75;;
51828;SDS011;37881;48.024;8.774;2024-01-11T13:26:00;77.40;;;27.63;;
51828;SDS011;37881;48.024;8.774;2024-01-11T13:28:29;78.28;;;29.67;;
51828;SDS011;37881;48.024;8.774;2024-01-11T13:30:55;76.40;;;27.13;;
51828;SDS011;37881;48.024;8.774;2024-01-11T13:33:23;77.77;;;27.63;;
51828;SDS011;37881;48.024;8.774;2024-01-11T13:35:50;79.88;;;28.98;;
51828;SDS011;37881;48.024;8.774;2024-01-11T13:38:18;72.43;;;26.40;;
51828;SDS011;37881;48.024;8.774;2024-01-11T13:40:49;75.43;;;26.55;;
51828;SDS011;37881;48.024;8.774;2024-01-11T13:43:16;75.80;;;27.27;;
51828;SDS011;37881;48.024;8.774;2024-01-11T13:45:43;87.30;;;28.30;;
51828;SDS011;37881;48.024;8.774;2024-01-11T13:48:11;80.30;;;28.08;;
51828;SDS011;37881;48.024;8.774;2024-01-11T13:50:38;90.07;;;30.42;;
51828;SDS011;37881;48.024;8.774;2024-01-11T13:53:05;76.45;;;27.67;;
51828;SDS011;37881;48.024;8.774;2024-01-11T13:55:32;75.03;;;27.50;;
51828;SDS011;37881;48.024;8.774;2024-01-11T13:58:06;79.13;;;27.83;;
51828;SDS011;37881;48.024;8.774;2024-01-11T14:00:34;80.15;;;28.48;;
51828;SDS011;37881;48.024;8.774;2024-01-11T14:03:01;85.18;;;30.92;;
51828;SDS011;37881;48.024;8.774;2024-01-11T14:05:28;74.40;;;26.73;;
51828;SDS011;37881;48.024;8.774;2024-01-11T14:07:55;80.90;;;28.70;;
51828;SDS011;37881;48.024;8.774;2024-01-11T14:10:25;85.53;;;28.40;;
51828;SDS011;37881;48.024;8.774;2024-01-11T14:12:54;83.00;;;26.70;;
51828;SDS011;37881;48.024;8.774;2024-01-11T14:15:21;78.40;;;26.42;;
51828;SDS011;37881;48.024;8.774;2024-01-11T14:17:47;80.90;;;27.17;;
51828;SDS011;37881;48.024;8.774;2024-01-11T14:20:15;74.85;;;26.63;;
51828;SDS011;37881;48.024;8.774;2024-01-11T14:22:43;81.87;;;27.63;;